sensor_id;sensor_type;location;lat;lon;timestamp;P1;durP1;ratioP1;P2;durP2;ratioP2
74963;SDS011;63521;51.900;4.748;2023-06-14T00:01:28;1.67;;;1.58;;
74963;SDS011;63521;51.900;4.748;2023-06-14T00:04:20;2.35;;;1.83;;
74963;SDS011;63521;51.900;4.748;2023-06-14T00:07:01;2.55;;;1.80;;
74963;SDS011;63521;51.900;4.748;2023-06-14T00:09:41;2.22;;;1.60;;
74963;SDS011;63521;51.900;4.748;2023-06-14T00:12:40;2.47;;;1.85;;
74963;SDS011;63521;51.900;4.748;2023-06-14T00:15:33;2.35;;;1.95;;
74963;SDS011;63521;51.900;4.748;2023-06-14T00:18:10;2.45;;;1.77;;
74963;SDS011;63521;51.900;4.748;2023-06-14T00:20:57;2.75;;;1.75;;
74963;SDS011;63521;51.900;4.748;2023-06-14T00:23:39;1.80;;;1.60;;
74963;SDS011;63521;51.900;4.748;2023-06-14T00:26:16;3.45;;;1.80;;
74963;SDS011;63521;51.900;4.748;2023-06-14T00:29:07;3.08;;;1.83;;
74963;SDS011;63521;51.900;4.748;2023-06-14T00:31:50;2.00;;;1.80;;
74963;SDS011;63521;51.900;4.748;2023-06-14T00:34:39;2.42;;;1.73;;
74963;SDS011;63521;51.900;4.748;2023-06-14T00:37:43;2.58;;;1.77;;
74963;SDS011;63521;51.900;4.748;2023-06-14T00:40:14;3.22;;;1.88;;
74963;SDS011;63521;51.900;4.748;2023-06-14T00:42:47;2.08;;;1.60;;
74963;SDS011;63521;51.900;4.748;2023-06-14T00:45:53;1.95;;;1.50;;
74963;SDS011;63521;51.900;4.748;2023-06-14T00:48:37;2.03;;;1.55;;
74963;SDS011;63521;51.900;4.748;2023-06-14T00:51:11;2.15;;;1.80;;
74963;SDS011;63521;51.900;4.748;2023-06-14T00:53:55;3.17;;;1.67;;
74963;SDS011;63521;51.900;4.748;2023-06-14T00:56:37;1.98;;;1.70;;
74963;SDS011;63521;51.900;4.748;2023-06-14T00:59:24;2.13;;;1.92;;
74963;SDS011;63521;51.900;4.748;2023-06-14T01:02:24;1.98;;;1.65;;
74963;SDS011;63521;51.900;4.748;2023-06-14T01:04:55;2.05;;;1.70;;
74963;SDS011;63521;51.900;4.748;2023-06-14T01:11:07;2.15;;;1.60;;
74963;SDS011;63521;51.900;4.748;2023-06-14T01:13:57;2.92;;;2.00;;
74963;SDS011;63521;51.900;4.748;2023-06-14T01:16:36;1.90;;;1.60;;
74963;SDS011;63521;51.900;4.748;2023-06-14T01:19:12;4.32;;;1.80;;
74963;SDS011;63521;51.900;4.748;2023-06-14T01:21:56;3.30;;;1.80;;
74963;SDS011;63521;51.900;4.748;2023-06-14T01:24:31;4.75;;;1.75;;
74963;SDS011;63521;51.900;4.748;2023-06-14T01:27:12;2.10;;;1.63;;
74963;SDS011;63521;51.900;4.748;2023-06-14T01:30:25;2.30;;;1.70;;
74963;SDS011;63521;51.900;4.748;2023-06-14T01:32:56;4.25;;;2.00;;
74963;SDS011;63521;51.900;4.748;2023-06-14T01:35:35;2.75;;;1.85;;
74963;SDS011;63521;51.900;4.748;2023-06-14T01:38:14;2.00;;;1.63;;
74963;SDS011;63521;51.900;4.748;2023-06-14T01:40:56;2.25;;;1.75;;
74963;SDS011;63521;51.900;4.748;2023-06-14T01:43:44;2.25;;;1.73;;
74963;SDS011;63521;51.900;4.748;2023-06-14T01:46:26;2.17;;;1.55;;
74963;SDS011;63521;51.900;4.748;2023-06-14T01:48:56;2.63;;;1.55;;
74963;SDS011;63521;51.900;4.748;2023-06-14T01:51:32;2.70;;;1.77;;
74963;SDS011;63521;51.900;4.748;2023-06-14T01:54:03;2.97;;;2.15;;
74963;SDS011;63521;51.900;4.748;2023-06-14T01:56:34;2.33;;;1.67;;
74963;SDS011;63521;51.900;4.748;2023-06-14T01:58:59;1.90;;;1.58;;
74963;SDS011;63521;51.900;4.748;2023-06-14T02:01:24;2.25;;;1.50;;
74963;SDS011;63521;51.900;4.748;2023-06-14T02:03:51;2.58;;;1.80;;
74963;SDS011;63521;51.900;4.748;2023-06-14T02:06:18;4.03;;;1.80;;
74963;SDS011;63521;51.900;4.748;2023-06-14T02:08:44;2.22;;;1.63;;
74963;SDS011;63521;51.900;4.748;2023-06-14T02:11:10;1.60;;;1.50;;
74963;SDS011;63521;51.900;4.748;2023-06-14T02:13:35;2.63;;;1.77;;
74963;SDS011;63521;51.900;4.748;2023-06-14T02:16:00;3.80;;;1.75;;
74963;SDS011;63521;51.900;4.748;2023-06-14T02:18:26;2.92;;;1.73;;
74963;SDS011;63521;51.900;4.748;2023-06-14T02:20:52;3.00;;;1.90;;
74963;SDS011;63521;51.900;4.748;2023-06-14T02:23:17;2.65;;;1.83;;
74963;SDS011;63521;51.900;4.748;2023-06-14T02:25:43;1.75;;;1.52;;
74963;SDS011;63521;51.900;4.748;2023-06-14T02:28:10;2.50;;;1.75;;
74963;SDS011;63521;51.900;4.748;2023-06-14T02:30:35;3.47;;;1.63;;
74963;SDS011;63521;51.900;4.748;2023-06-14T02:33:01;2.42;;;1.80;;
74963;SDS011;63521;51.900;4.748;2023-06-14T02:35:26;2.83;;;1.50;;
74963;SDS011;63521;51.900;4.748;2023-06-14T02:37:52;2.08;;;1.77;;
74963;SDS011;63521;51.900;4.748;2023-06-14T02:40:18;1.83;;;1.50;;
74963;SDS011;63521;51.900;4.748;2023-06-14T02:42:45;2.15;;;1.67;;
74963;SDS011;63521;51.900;4.748;2023-06-14T02:45:10;2.70;;;2.10;;
74963;SDS011;63521;51.900;4.748;2023-06-14T02:47:35;2.40;;;1.65;;
74963;SDS011;63521;51.900;4.748;2023-06-14T02:50:01;3.58;;;2.30;;
74963;SDS011;63521;51.900;4.748;2023-06-14T02:52:28;2.17;;;1.67;;
74963;SDS011;63521;51.900;4.748;2023-06-14T02:54:54;3.05;;;1.92;;
74963;SDS011;63521;51.900;4.748;2023-06-14T02:57:20;2.85;;;1.90;;
74963;SDS011;63521;51.900;4.748;2023-06-14T02:59:47;2.28;;;1.63;;
74963;SDS011;63521;51.900;4.748;2023-06-14T03:02:12;2.35;;;1.60;;
74963;SDS011;63521;51.900;4.748;2023-06-14T03:04:38;2.90;;;1.70;;
74963;SDS011;63521;51.900;4.748;2023-06-14T03:07:03;2.15;;;1.60;;
74963;SDS011;63521;51.900;4.748;2023-06-14T03:09:35;3.30;;;1.75;;
74963;SDS011;63521;51.900;4.748;2023-06-14T03:12:02;2.30;;;1.73;;
74963;SDS011;63521;51.900;4.748;2023-06-14T03:14:28;2.17;;;1.40;;
74963;SDS011;63521;51.900;4.748;2023-06-14T03:16:55;2.33;;;1.70;;
74963;SDS011;63521;51.900;4.748;2023-06-14T03:19:22;2.63;;;1.42;;
74963;SDS011;63521;51.900;4.748;2023-06-14T03:21:48;2.10;;;1.65;;
74963;SDS011;63521;51.900;4.748;2023-06-14T03:24:14;2.55;;;1.50;;
74963;SDS011;63521;51.900;4.748;2023-06-14T03:26:41;2.22;;;1.52;;
74963;SDS011;63521;51.900;4.748;2023-06-14T03:29:07;2.03;;;1.45;;
74963;SDS011;63521;51.900;4.748;2023-06-14T03:31:33;2.25;;;2.05;;
74963;SDS011;63521;51.900;4.748;2023-06-14T03:34:00;1.85;;;1.48;;
74963;SDS011;63521;51.900;4.748;2023-06-14T03:36:25;1.75;;;1.40;;
74963;SDS011;63521;51.900;4.748;2023-06-14T03:38:51;3.50;;;1.73;;
74963;SDS011;63521;51.900;4.748;2023-06-14T03:41:16;2.08;;;1.60;;
74963;SDS011;63521;51.900;4.748;2023-06-14T03:43:42;2.80;;;1.90;;
74963;SDS011;63521;51.900;4.748;2023-06-14T03:46:07;2.83;;;1.55;;
74963;SDS011;63521;51.900;4.748;2023-06-14T03:48:32;3.03;;;1.48;;
74963;SDS011;63521;51.900;4.748;2023-06-14T03:50:58;2.58;;;1.60;;
74963;SDS011;63521;51.900;4.748;2023-06-14T03:53:23;2.20;;;1.60;;
74963;SDS011;63521;51.900;4.748;2023-06-14T03:55:49;1.92;;;1.45;;
74963;SDS011;63521;51.900;4.748;2023-06-14T03:58:17;2.08;;;1.48;;
74963;SDS011;63521;51.900;4.748;2023-06-14T04:00:43;2.30;;;1.67;;
74963;SDS011;63521;51.900;4.748;2023-06-14T04:03:08;1.80;;;1.30;;
74963;SDS011;63521;51.900;4.748;2023-06-14T04:05:34;1.52;;;1.30;;
74963;SDS011;63521;51.900;4.748;2023-06-14T04:07:59;1.65;;;1.40;;
74963;SDS011;63521;51.900;4.748;2023-06-14T04:10:26;1.67;;;1.40;;
74963;SDS011;63521;51.900;4.748;2023-06-14T04:12:51;2.40;;;1.58;;
74963;SDS011;63521;51.900;4.748;2023-06-14T04:15:17;2.50;;;1.40;;
74963;SDS011;63521;51.900;4.748;2023-06-14T04:17:43;2.10;;;1.65;;
74963;SDS011;63521;51.900;4.748;2023-06-14T04:20:08;2.63;;;1.63;;
74963;SDS011;63521;51.900;4.748;2023-06-14T04:22:34;1.67;;;1.55;;
74963;SDS011;63521;51.900;4.748;2023-06-14T04:25:01;2.60;;;1.60;;
74963;SDS011;63521;51.900;4.748;2023-06-14T04:27:26;2.03;;;1.42;;
74963;SDS011;63521;51.900;4.748;2023-06-14T04:29:53;2.90;;;1.60;;
74963;SDS011;63521;51.900;4.748;2023-06-14T04:32:24;2.33;;;1.42;;
74963;SDS011;63521;51.900;4.748;2023-06-14T04:34:55;3.03;;;1.50;;
74963;SDS011;63521;51.900;4.748;2023-06-14T04:37:21;1.77;;;1.40;;
74963;SDS011;63521;51.900;4.748;2023-06-14T04:39:50;3.03;;;1.35;;
74963;SDS011;63521;51.900;4.748;2023-06-14T04:42:16;1.70;;;1.17;;
74963;SDS011;63521;51.900;4.748;2023-06-14T04:44:45;1.98;;;1.40;;
74963;SDS011;63521;51.900;4.748;2023-06-14T04:47:12;1.92;;;1.30;;
74963;SDS011;63521;51.900;4.748;2023-06-14T04:49:39;2.15;;;1.50;;
74963;SDS011;63521;51.900;4.748;2023-06-14T04:52:06;2.25;;;1.40;;
74963;SDS011;63521;51.900;4.748;2023-06-14T04:54:31;2.45;;;1.50;;
74963;SDS011;63521;51.900;4.748;2023-06-14T04:56:58;2.80;;;1.60;;
74963;SDS011;63521;51.900;4.748;2023-06-14T04:59:23;1.58;;;1.40;;
74963;SDS011;63521;51.900;4.748;2023-06-14T05:01:49;2.80;;;1.45;;
74963;SDS011;63521;51.900;4.748;2023-06-14T05:04:15;2.00;;;1.50;;
74963;SDS011;63521;51.900;4.748;2023-06-14T05:06:41;2.05;;;1.50;;
74963;SDS011;63521;51.900;4.748;2023-06-14T05:09:09;1.50;;;1.35;;
74963;SDS011;63521;51.900;4.748;2023-06-14T05:11:35;2.55;;;1.58;;
74963;SDS011;63521;51.900;4.748;2023-06-14T05:14:01;1.83;;;1.40;;
74963;SDS011;63521;51.900;4.748;2023-06-14T05:16:26;3.50;;;1.40;;
74963;SDS011;63521;51.900;4.748;2023-06-14T05:18:52;2.88;;;1.52;;
74963;SDS011;63521;51.900;4.748;2023-06-14T05:21:18;1.77;;;1.27;;
74963;SDS011;63521;51.900;4.748;2023-06-14T05:23:44;3.40;;;1.40;;
74963;SDS011;63521;51.900;4.748;2023-06-14T05:26:10;2.58;;;1.42;;
74963;SDS011;63521;51.900;4.748;2023-06-14T05:28:35;3.63;;;1.60;;
74963;SDS011;63521;51.900;4.748;2023-06-14T05:31:01;1.92;;;1.38;;
74963;SDS011;63521;51.900;4.748;2023-06-14T05:33:27;3.78;;;1.70;;
74963;SDS011;63521;51.900;4.748;2023-06-14T05:35:52;1.90;;;1.45;;
74963;SDS011;63521;51.900;4.748;2023-06-14T05:38:17;1.50;;;1.23;;
74963;SDS011;63521;51.900;4.748;2023-06-14T05:40:43;2.40;;;1.60;;
74963;SDS011;63521;51.900;4.748;2023-06-14T05:43:08;1.77;;;1.50;;
74963;SDS011;63521;51.900;4.748;2023-06-14T05:45:34;3.15;;;1.52;;
74963;SDS011;63521;51.900;4.748;2023-06-14T05:47:59;1.77;;;1.48;;
74963;SDS011;63521;51.900;4.748;2023-06-14T05:50:24;3.47;;;1.50;;
74963;SDS011;63521;51.900;4.748;2023-06-14T05:52:50;3.08;;;1.60;;
74963;SDS011;63521;51.900;4.748;2023-06-14T05:55:18;3.33;;;1.55;;
74963;SDS011;63521;51.900;4.748;2023-06-14T05:57:43;2.20;;;1.50;;
74963;SDS011;63521;51.900;4.748;2023-06-14T06:00:09;2.17;;;1.77;;
74963;SDS011;63521;51.900;4.748;2023-06-14T06:02:42;2.35;;;1.52;;
74963;SDS011;63521;51.900;4.748;2023-06-14T06:05:08;3.10;;;1.42;;
74963;SDS011;63521;51.900;4.748;2023-06-14T06:07:37;1.60;;;1.40;;
74963;SDS011;63521;51.900;4.748;2023-06-14T06:10:03;2.28;;;1.70;;
74963;SDS011;63521;51.900;4.748;2023-06-14T06:12:29;2.10;;;1.90;;
74963;SDS011;63521;51.900;4.748;2023-06-14T06:14:55;2.88;;;1.63;;
74963;SDS011;63521;51.900;4.748;2023-06-14T06:17:20;3.35;;;1.83;;
74963;SDS011;63521;51.900;4.748;2023-06-14T06:19:46;3.60;;;1.60;;
74963;SDS011;63521;51.900;4.748;2023-06-14T06:22:11;3.47;;;1.80;;
74963;SDS011;63521;51.900;4.748;2023-06-14T06:24:36;2.97;;;1.80;;
74963;SDS011;63521;51.900;4.748;2023-06-14T06:27:02;2.42;;;1.60;;
74963;SDS011;63521;51.900;4.748;2023-06-14T06:29:27;2.60;;;1.70;;
74963;SDS011;63521;51.900;4.748;2023-06-14T06:31:53;4.18;;;1.75;;
74963;SDS011;63521;51.900;4.748;2023-06-14T06:34:18;3.00;;;1.63;;
74963;SDS011;63521;51.900;4.748;2023-06-14T06:36:44;2.75;;;1.92;;
74963;SDS011;63521;51.900;4.748;2023-06-14T06:39:09;2.45;;;1.85;;
74963;SDS011;63521;51.900;4.748;2023-06-14T06:41:38;3.88;;;1.80;;
74963;SDS011;63521;51.900;4.748;2023-06-14T06:44:07;2.80;;;2.20;;
74963;SDS011;63521;51.900;4.748;2023-06-14T06:46:35;4.05;;;2.35;;
74963;SDS011;63521;51.900;4.748;2023-06-14T06:49:05;4.40;;;2.25;;
74963;SDS011;63521;51.900;4.748;2023-06-14T06:51:30;2.78;;;1.98;;
74963;SDS011;63521;51.900;4.748;2023-06-14T06:53:56;3.15;;;2.05;;
74963;SDS011;63521;51.900;4.748;2023-06-14T06:56:21;4.43;;;2.00;;
74963;SDS011;63521;51.900;4.748;2023-06-14T06:58:50;3.88;;;2.10;;
74963;SDS011;63521;51.900;4.748;2023-06-14T07:01:15;3.70;;;2.22;;
74963;SDS011;63521;51.900;4.748;2023-06-14T07:03:41;3.20;;;1.77;;
74963;SDS011;63521;51.900;4.748;2023-06-14T07:06:07;3.13;;;2.25;;
74963;SDS011;63521;51.900;4.748;2023-06-14T07:08:32;3.33;;;2.25;;
74963;SDS011;63521;51.900;4.748;2023-06-14T07:10:58;2.15;;;1.95;;
74963;SDS011;63521;51.900;4.748;2023-06-14T07:13:23;3.20;;;2.20;;
74963;SDS011;63521;51.900;4.748;2023-06-14T07:15:48;3.72;;;2.10;;
74963;SDS011;63521;51.900;4.748;2023-06-14T07:18:14;5.70;;;3.58;;
74963;SDS011;63521;51.900;4.748;2023-06-14T07:20:39;3.95;;;2.22;;
74963;SDS011;63521;51.900;4.748;2023-06-14T07:23:05;4.35;;;2.58;;
74963;SDS011;63521;51.900;4.748;2023-06-14T07:25:30;3.63;;;2.55;;
74963;SDS011;63521;51.900;4.748;2023-06-14T07:27:56;2.70;;;2.03;;
74963;SDS011;63521;51.900;4.748;2023-06-14T07:30:21;3.33;;;2.25;;
74963;SDS011;63521;51.900;4.748;2023-06-14T07:32:51;2.60;;;1.85;;
74963;SDS011;63521;51.900;4.748;2023-06-14T07:35:17;3.08;;;2.42;;
74963;SDS011;63521;51.900;4.748;2023-06-14T07:37:42;5.40;;;2.10;;
74963;SDS011;63521;51.900;4.748;2023-06-14T07:40:08;3.38;;;2.17;;
74963;SDS011;63521;51.900;4.748;2023-06-14T07:42:35;3.03;;;2.20;;
74963;SDS011;63521;51.900;4.748;2023-06-14T07:45:01;2.80;;;2.30;;
74963;SDS011;63521;51.900;4.748;2023-06-14T07:47:27;2.58;;;2.20;;
74963;SDS011;63521;51.900;4.748;2023-06-14T07:49:52;3.22;;;2.20;;
74963;SDS011;63521;51.900;4.748;2023-06-14T07:52:17;4.15;;;2.15;;
74963;SDS011;63521;51.900;4.748;2023-06-14T07:54:43;2.65;;;2.20;;
74963;SDS011;63521;51.900;4.748;2023-06-14T07:57:08;2.60;;;2.30;;
74963;SDS011;63521;51.900;4.748;2023-06-14T07:59:34;4.18;;;2.33;;
74963;SDS011;63521;51.900;4.748;2023-06-14T08:02:00;4.07;;;2.20;;
74963;SDS011;63521;51.900;4.748;2023-06-14T08:04:25;3.45;;;2.40;;
74963;SDS011;63521;51.900;4.748;2023-06-14T08:06:51;2.65;;;2.38;;
74963;SDS011;63521;51.900;4.748;2023-06-14T08:09:16;2.85;;;2.22;;
74963;SDS011;63521;51.900;4.748;2023-06-14T08:11:41;2.72;;;2.42;;
74963;SDS011;63521;51.900;4.748;2023-06-14T08:14:07;3.80;;;2.53;;
74963;SDS011;63521;51.900;4.748;2023-06-14T08:16:33;4.97;;;2.70;;
74963;SDS011;63521;51.900;4.748;2023-06-14T08:18:58;2.67;;;2.30;;
74963;SDS011;63521;51.900;4.748;2023-06-14T08:21:24;5.60;;;2.13;;
74963;SDS011;63521;51.900;4.748;2023-06-14T08:23:54;3.47;;;2.55;;
74963;SDS011;63521;51.900;4.748;2023-06-14T08:26:20;3.20;;;2.40;;
74963;SDS011;63521;51.900;4.748;2023-06-14T08:28:46;5.22;;;2.25;;
74963;SDS011;63521;51.900;4.748;2023-06-14T08:31:11;3.38;;;2.40;;
74963;SDS011;63521;51.900;4.748;2023-06-14T08:33:38;3.53;;;2.33;;
74963;SDS011;63521;51.900;4.748;2023-06-14T08:36:08;3.22;;;2.40;;
74963;SDS011;63521;51.900;4.748;2023-06-14T08:38:33;3.03;;;2.50;;
74963;SDS011;63521;51.900;4.748;2023-06-14T08:40:58;4.10;;;2.92;;
74963;SDS011;63521;51.900;4.748;2023-06-14T08:43:26;3.30;;;2.58;;
74963;SDS011;63521;51.900;4.748;2023-06-14T08:45:53;3.42;;;3.00;;
74963;SDS011;63521;51.900;4.748;2023-06-14T08:48:23;3.92;;;2.72;;
74963;SDS011;63521;51.900;4.748;2023-06-14T08:50:57;4.22;;;2.42;;
74963;SDS011;63521;51.900;4.748;2023-06-14T08:53:30;4.53;;;2.78;;
74963;SDS011;63521;51.900;4.748;2023-06-14T08:55:57;3.05;;;2.20;;
74963;SDS011;63521;51.900;4.748;2023-06-14T08:58:25;3.38;;;2.78;;
74963;SDS011;63521;51.900;4.748;2023-06-14T09:00:50;5.50;;;2.97;;
74963;SDS011;63521;51.900;4.748;2023-06-14T09:03:17;7.07;;;2.97;;
74963;SDS011;63521;51.900;4.748;2023-06-14T09:05:45;3.70;;;2.80;;
74963;SDS011;63521;51.900;4.748;2023-06-14T09:08:11;4.13;;;3.42;;
74963;SDS011;63521;51.900;4.748;2023-06-14T09:10:36;6.32;;;2.85;;
74963;SDS011;63521;51.900;4.748;2023-06-14T09:13:02;2.85;;;2.50;;
74963;SDS011;63521;51.900;4.748;2023-06-14T09:15:28;4.35;;;2.58;;
74963;SDS011;63521;51.900;4.748;2023-06-14T09:17:55;3.47;;;2.60;;
74963;SDS011;63521;51.900;4.748;2023-06-14T09:20:20;4.88;;;3.10;;
74963;SDS011;63521;51.900;4.748;2023-06-14T09:22:46;5.32;;;2.80;;
74963;SDS011;63521;51.900;4.748;2023-06-14T09:25:11;2.92;;;2.60;;
74963;SDS011;63521;51.900;4.748;2023-06-14T09:27:40;3.70;;;2.50;;
74963;SDS011;63521;51.900;4.748;2023-06-14T09:30:08;2.85;;;2.45;;
74963;SDS011;63521;51.900;4.748;2023-06-14T09:32:37;3.95;;;2.60;;
74963;SDS011;63521;51.900;4.748;2023-06-14T09:35:05;4.13;;;2.42;;
74963;SDS011;63521;51.900;4.748;2023-06-14T09:37:32;2.50;;;2.30;;
74963;SDS011;63521;51.900;4.748;2023-06-14T09:39:58;4.07;;;2.42;;
74963;SDS011;63521;51.900;4.748;2023-06-14T09:42:24;3.17;;;2.42;;
74963;SDS011;63521;51.900;4.748;2023-06-14T09:44:54;2.38;;;2.17;;
74963;SDS011;63521;51.900;4.748;2023-06-14T09:47:21;4.03;;;2.30;;
74963;SDS011;63521;51.900;4.748;2023-06-14T09:49:47;2.45;;;2.17;;
74963;SDS011;63521;51.900;4.748;2023-06-14T09:52:14;4.28;;;2.60;;
74963;SDS011;63521;51.900;4.748;2023-06-14T09:54:41;2.25;;;1.90;;
74963;SDS011;63521;51.900;4.748;2023-06-14T09:57:08;3.17;;;2.25;;
74963;SDS011;63521;51.900;4.748;2023-06-14T09:59:48;3.17;;;2.28;;
74963;SDS011;63521;51.900;4.748;2023-06-14T10:02:39;3.85;;;2.33;;
74963;SDS011;63521;51.900;4.748;2023-06-14T10:05:05;4.65;;;2.40;;
74963;SDS011;63521;51.900;4.748;2023-06-14T10:07:36;3.55;;;2.20;;
74963;SDS011;63521;51.900;4.748;2023-06-14T10:10:05;3.05;;;1.98;;
74963;SDS011;63521;51.900;4.748;2023-06-14T10:12:31;2.90;;;2.28;;
74963;SDS011;63521;51.900;4.748;2023-06-14T10:14:56;2.85;;;1.90;;
74963;SDS011;63521;51.900;4.748;2023-06-14T10:17:27;3.17;;;2.00;;
74963;SDS011;63521;51.900;4.748;2023-06-14T10:23:16;3.05;;;2.10;;
74963;SDS011;63521;51.900;4.748;2023-06-14T10:25:44;3.25;;;2.15;;
74963;SDS011;63521;51.900;4.748;2023-06-14T10:28:19;4.10;;;2.15;;
74963;SDS011;63521;51.900;4.748;2023-06-14T10:33:37;2.35;;;2.00;;
74963;SDS011;63521;51.900;4.748;2023-06-14T10:38:57;3.00;;;1.95;;
74963;SDS011;63521;51.900;4.748;2023-06-14T10:41:50;2.38;;;1.50;;
74963;SDS011;63521;51.900;4.748;2023-06-14T10:46:47;2.73;;;2.10;;
74963;SDS011;63521;51.900;4.748;2023-06-14T10:49:20;2.50;;;1.95;;
74963;SDS011;63521;51.900;4.748;2023-06-14T10:52:07;1.88;;;1.75;;
74963;SDS011;63521;51.900;4.748;2023-06-14T10:57:34;1.67;;;1.48;;
74963;SDS011;63521;51.900;4.748;2023-06-14T11:00:22;1.70;;;1.60;;
74963;SDS011;63521;51.900;4.748;2023-06-14T11:05:48;1.63;;;1.52;;
74963;SDS011;63521;51.900;4.748;2023-06-14T11:11:12;1.73;;;1.63;;
74963;SDS011;63521;51.900;4.748;2023-06-14T11:13:39;1.98;;;1.75;;
74963;SDS011;63521;51.900;4.748;2023-06-14T11:16:12;1.90;;;1.80;;
74963;SDS011;63521;51.900;4.748;2023-06-14T11:18:39;1.50;;;1.40;;
74963;SDS011;63521;51.900;4.748;2023-06-14T11:21:04;1.90;;;1.67;;
74963;SDS011;63521;51.900;4.748;2023-06-14T11:23:29;1.58;;;1.45;;
74963;SDS011;63521;51.900;4.748;2023-06-14T11:25:55;1.73;;;1.63;;
74963;SDS011;63521;51.900;4.748;2023-06-14T11:28:20;1.70;;;1.60;;
74963;SDS011;63521;51.900;4.748;2023-06-14T11:30:47;1.80;;;1.70;;
74963;SDS011;63521;51.900;4.748;2023-06-14T11:33:17;2.10;;;1.52;;
74963;SDS011;63521;51.900;4.748;2023-06-14T11:35:46;2.03;;;1.70;;
74963;SDS011;63521;51.900;4.748;2023-06-14T11:38:11;1.92;;;1.73;;
74963;SDS011;63521;51.900;4.748;2023-06-14T11:40:37;2.83;;;1.60;;
74963;SDS011;63521;51.900;4.748;2023-06-14T11:43:03;1.88;;;1.65;;
74963;SDS011;63521;51.900;4.748;2023-06-14T11:45:29;2.25;;;1.65;;
74963;SDS011;63521;51.900;4.748;2023-06-14T11:47:56;2.55;;;1.63;;
74963;SDS011;63521;51.900;4.748;2023-06-14T11:50:22;2.72;;;1.58;;
74963;SDS011;63521;51.900;4.748;2023-06-14T11:52:57;2.53;;;1.77;;
74963;SDS011;63521;51.900;4.748;2023-06-14T11:55:28;2.33;;;1.70;;
74963;SDS011;63521;51.900;4.748;2023-06-14T11:57:54;2.05;;;1.77;;
74963;SDS011;63521;51.900;4.748;2023-06-14T12:00:22;2.95;;;1.85;;
74963;SDS011;63521;51.900;4.748;2023-06-14T12:02:53;2.45;;;1.98;;
74963;SDS011;63521;51.900;4.748;2023-06-14T12:05:22;2.10;;;1.60;;
74963;SDS011;63521;51.900;4.748;2023-06-14T12:07:49;1.83;;;1.73;;
74963;SDS011;63521;51.900;4.748;2023-06-14T12:10:15;2.45;;;1.67;;
74963;SDS011;63521;51.900;4.748;2023-06-14T12:12:41;2.30;;;1.85;;
74963;SDS011;63521;51.900;4.748;2023-06-14T12:15:07;2.25;;;1.95;;
74963;SDS011;63521;51.900;4.748;2023-06-14T12:17:34;1.98;;;1.63;;
74963;SDS011;63521;51.900;4.748;2023-06-14T12:20:09;1.77;;;1.50;;
74963;SDS011;63521;51.900;4.748;2023-06-14T12:22:36;1.70;;;1.60;;
74963;SDS011;63521;51.900;4.748;2023-06-14T12:25:02;1.92;;;1.48;;
74963;SDS011;63521;51.900;4.748;2023-06-14T12:27:29;1.63;;;1.52;;
74963;SDS011;63521;51.900;4.748;2023-06-14T12:30:00;2.15;;;1.83;;
74963;SDS011;63521;51.900;4.748;2023-06-14T12:32:27;3.58;;;1.55;;
74963;SDS011;63521;51.900;4.748;2023-06-14T12:34:52;1.88;;;1.60;;
74963;SDS011;63521;51.900;4.748;2023-06-14T12:37:18;2.15;;;1.70;;
74963;SDS011;63521;51.900;4.748;2023-06-14T12:39:43;2.80;;;1.65;;
74963;SDS011;63521;51.900;4.748;2023-06-14T12:42:09;2.08;;;1.67;;
74963;SDS011;63521;51.900;4.748;2023-06-14T12:44:34;3.85;;;1.60;;
74963;SDS011;63521;51.900;4.748;2023-06-14T12:47:05;1.70;;;1.60;;
74963;SDS011;63521;51.900;4.748;2023-06-14T12:49:31;2.80;;;1.88;;
74963;SDS011;63521;51.900;4.748;2023-06-14T12:51:56;1.98;;;1.77;;
74963;SDS011;63521;51.900;4.748;2023-06-14T12:54:21;1.73;;;1.63;;
74963;SDS011;63521;51.900;4.748;2023-06-14T12:56:50;1.70;;;1.60;;
74963;SDS011;63521;51.900;4.748;2023-06-14T12:59:16;2.30;;;1.60;;
74963;SDS011;63521;51.900;4.748;2023-06-14T13:01:42;3.03;;;1.65;;
74963;SDS011;63521;51.900;4.748;2023-06-14T13:04:07;2.67;;;1.80;;
74963;SDS011;63521;51.900;4.748;2023-06-14T13:06:33;3.40;;;1.70;;
74963;SDS011;63521;51.900;4.748;2023-06-14T13:08:59;3.50;;;1.98;;
74963;SDS011;63521;51.900;4.748;2023-06-14T13:11:26;2.63;;;1.60;;
74963;SDS011;63521;51.900;4.748;2023-06-14T13:13:51;2.95;;;1.55;;
74963;SDS011;63521;51.900;4.748;2023-06-14T13:16:17;4.10;;;1.80;;
74963;SDS011;63521;51.900;4.748;2023-06-14T13:18:42;1.98;;;1.65;;
74963;SDS011;63521;51.900;4.748;2023-06-14T13:21:07;2.20;;;1.80;;
74963;SDS011;63521;51.900;4.748;2023-06-14T13:23:33;3.22;;;2.00;;
74963;SDS011;63521;51.900;4.748;2023-06-14T13:25:58;4.20;;;2.03;;
74963;SDS011;63521;51.900;4.748;2023-06-14T13:28:24;1.88;;;1.67;;
74963;SDS011;63521;51.900;4.748;2023-06-14T13:30:49;2.78;;;1.67;;
74963;SDS011;63521;51.900;4.748;2023-06-14T13:33:15;2.42;;;2.00;;
74963;SDS011;63521;51.900;4.748;2023-06-14T13:35:40;2.13;;;1.83;;
74963;SDS011;63521;51.900;4.748;2023-06-14T13:38:05;2.05;;;1.60;;
74963;SDS011;63521;51.900;4.748;2023-06-14T13:40:31;1.95;;;1.70;;
74963;SDS011;63521;51.900;4.748;2023-06-14T13:42:56;2.63;;;1.65;;
74963;SDS011;63521;51.900;4.748;2023-06-14T13:45:21;4.15;;;1.92;;
74963;SDS011;63521;51.900;4.748;2023-06-14T13:47:47;2.08;;;1.88;;
74963;SDS011;63521;51.900;4.748;2023-06-14T13:50:13;1.83;;;1.73;;
74963;SDS011;63521;51.900;4.748;2023-06-14T13:52:39;2.47;;;1.80;;
74963;SDS011;63521;51.900;4.748;2023-06-14T13:55:05;1.92;;;1.73;;
74963;SDS011;63521;51.900;4.748;2023-06-14T13:57:30;2.05;;;1.85;;
74963;SDS011;63521;51.900;4.748;2023-06-14T13:59:56;2.22;;;1.77;;
74963;SDS011;63521;51.900;4.748;2023-06-14T14:02:26;2.83;;;1.83;;
74963;SDS011;63521;51.900;4.748;2023-06-14T14:04:52;3.35;;;2.15;;
74963;SDS011;63521;51.900;4.748;2023-06-14T14:07:18;2.05;;;1.88;;
74963;SDS011;63521;51.900;4.748;2023-06-14T14:09:45;2.08;;;1.80;;
74963;SDS011;63521;51.900;4.748;2023-06-14T14:12:11;2.63;;;2.00;;
74963;SDS011;63521;51.900;4.748;2023-06-14T14:14:36;2.00;;;1.80;;
74963;SDS011;63521;51.900;4.748;2023-06-14T14:17:02;3.47;;;2.00;;
74963;SDS011;63521;51.900;4.748;2023-06-14T14:19:27;1.88;;;1.67;;
74963;SDS011;63521;51.900;4.748;2023-06-14T14:21:53;2.25;;;1.85;;
74963;SDS011;63521;51.900;4.748;2023-06-14T14:24:18;1.88;;;1.70;;
74963;SDS011;63521;51.900;4.748;2023-06-14T14:26:44;1.85;;;1.70;;
74963;SDS011;63521;51.900;4.748;2023-06-14T14:29:12;1.95;;;1.85;;
74963;SDS011;63521;51.900;4.748;2023-06-14T14:31:37;1.90;;;1.58;;
74963;SDS011;63521;51.900;4.748;2023-06-14T14:34:03;1.92;;;1.52;;
74963;SDS011;63521;51.900;4.748;2023-06-14T14:36:28;2.20;;;1.80;;
74963;SDS011;63521;51.900;4.748;2023-06-14T14:38:54;2.00;;;1.70;;
74963;SDS011;63521;51.900;4.748;2023-06-14T14:41:19;2.92;;;1.60;;
74963;SDS011;63521;51.900;4.748;2023-06-14T14:43:47;1.92;;;1.73;;
74963;SDS011;63521;51.900;4.748;2023-06-14T14:46:13;2.05;;;1.85;;
74963;SDS011;63521;51.900;4.748;2023-06-14T14:48:38;2.63;;;2.00;;
74963;SDS011;63521;51.900;4.748;2023-06-14T14:51:04;1.98;;;1.60;;
74963;SDS011;63521;51.900;4.748;2023-06-14T14:53:29;1.70;;;1.60;;
74963;SDS011;63521;51.900;4.748;2023-06-14T14:55:55;2.03;;;1.80;;
74963;SDS011;63521;51.900;4.748;2023-06-14T14:58:20;2.50;;;2.00;;
74963;SDS011;63521;51.900;4.748;2023-06-14T15:00:45;1.80;;;1.70;;
74963;SDS011;63521;51.900;4.748;2023-06-14T15:03:11;2.20;;;1.65;;
74963;SDS011;63521;51.900;4.748;2023-06-14T15:05:37;2.35;;;1.80;;
74963;SDS011;63521;51.900;4.748;2023-06-14T15:08:02;2.00;;;1.65;;
74963;SDS011;63521;51.900;4.748;2023-06-14T15:10:28;2.10;;;1.60;;
74963;SDS011;63521;51.900;4.748;2023-06-14T15:12:54;1.60;;;1.50;;
74963;SDS011;63521;51.900;4.748;2023-06-14T15:15:19;1.70;;;1.50;;
74963;SDS011;63521;51.900;4.748;2023-06-14T15:17:44;1.77;;;1.60;;
74963;SDS011;63521;51.900;4.748;2023-06-14T15:20:10;3.60;;;1.67;;